Terminal Aerodrome Forecast
Issued by NWS Grand Forks, ND

Home | Current Version | Previous Version | Text Only | Print | Product List | Glossary Off
Versions: 1 2 3 4 5 6 7 8 9 10 11 12 13

000
FTUS43 KFGF 251700
TAFGFK
TAF
KGFK 251723Z 2518/2618 31009KT P6SM BKN020
      TEMPO 2520/2524 OVC008
     FM260900 34010KT P6SM BKN025=

USA.gov is the U.S. government's official web portal to all federal, state and local government web resources and services.